Time;durP1;ratioP1;P1;durP2;ratioP2;P2;SDS_P1;SDS_P2;PMS_P1;PMS_P2;Temp;Humidity;BMP_temperature;BMP_pressure;BME280_temperature;BME280_humidity;BME280_pressure;Samples;Min_cycle;Max_cycle;Signal;HPM_P1;HPM_P2
2023/08/12 00:01:21;;;;;;;0.00;0.00;;;19.90;99.90;;;;;;5091411;28;20221;-60
2023/08/12 00:03:48;;;;;;;0.00;0.00;;;19.90;99.90;;;;;;5091368;28;20249;-61
2023/08/12 00:06:13;;;;;;;0.00;0.00;;;19.90;99.90;;;;;;5091141;28;20214;-61
2023/08/12 00:08:39;;;;;;;0.00;0.00;;;19.80;99.90;;;;;;5091379;28;20207;-61
2023/08/12 00:11:04;;;;;;;0.00;0.00;;;19.80;99.90;;;;;;5091165;28;20183;-60
2023/08/12 00:13:30;;;;;;;0.00;0.00;;;19.80;99.90;;;;;;5091087;28;20168;-61
2023/08/12 00:15:56;;;;;;;0.00;0.00;;;19.80;99.90;;;;;;5091044;28;20271;-61
2023/08/12 00:18:22;;;;;;;0.00;0.00;;;19.80;99.90;;;;;;5091269;28;20207;-61
2023/08/12 00:20:48;;;;;;;0.00;0.00;;;19.80;99.90;;;;;;5092326;28;20259;-62
2023/08/12 00:23:13;;;;;;;0.00;0.00;;;19.80;99.90;;;;;;5094859;28;20255;-61
2023/08/12 00:25:39;;;;;;;0.00;0.00;;;19.70;99.90;;;;;;5094715;28;20222;-60
2023/08/12 00:28:04;;;;;;;0.00;0.00;;;19.80;99.90;;;;;;5094562;28;20212;-61
2023/08/12 00:30:30;;;;;;;0.00;0.00;;;19.80;99.90;;;;;;5094785;28;20176;-61
2023/08/12 00:32:56;;;;;;;0.00;0.00;;;19.70;99.90;;;;;;5094460;28;20178;-60
2023/08/12 00:35:21;;;;;;;0.10;0.10;;;19.70;99.90;;;;;;5094752;28;20180;-60
2023/08/12 00:37:47;;;;;;;0.10;0.10;;;19.70;99.90;;;;;;5094724;28;20277;-60
2023/08/12 00:40:13;;;;;;;0.00;0.00;;;19.60;99.90;;;;;;5094384;28;20269;-60
2023/08/12 00:42:39;;;;;;;0.03;0.03;;;19.60;99.90;;;;;;5094441;28;20635;-60
2023/08/12 00:45:10;;;;;;;0.00;0.00;;;19.60;99.90;;;;;;5094481;28;20183;-60
2023/08/12 00:47:35;;;;;;;0.00;0.00;;;19.60;99.90;;;;;;5094545;28;20184;-60
2023/08/12 00:50:01;;;;;;;0.00;0.00;;;19.60;99.90;;;;;;5094438;28;20770;-60
2023/08/12 00:52:27;;;;;;;0.00;0.00;;;19.50;99.90;;;;;;5094423;28;20267;-60
2023/08/12 00:54:53;;;;;;;0.03;0.03;;;19.50;99.90;;;;;;5094406;28;20255;-60
2023/08/12 00:57:19;;;;;;;0.00;0.00;;;19.50;99.90;;;;;;5094178;28;20168;-60
2023/08/12 00:59:45;;;;;;;0.00;0.00;;;19.50;99.90;;;;;;5094257;28;20216;-60
2023/08/12 01:02:12;;;;;;;0.00;0.00;;;19.50;99.90;;;;;;5094246;28;20489;-60
2023/08/12 01:04:37;;;;;;;0.00;0.00;;;19.50;99.90;;;;;;5094069;28;20184;-60
2023/08/12 01:07:03;;;;;;;0.00;0.00;;;19.50;99.90;;;;;;5094123;28;20691;-60
2023/08/12 01:09:29;;;;;;;0.00;0.00;;;19.50;99.90;;;;;;5094176;28;20188;-60
2023/08/12 01:12:04;;;;;;;0.00;0.00;;;19.50;99.90;;;;;;5093924;28;20176;-60
2023/08/12 01:14:52;;;;;;;0.00;0.00;;;19.50;99.90;;;;;;5093881;28;20649;-60
2023/08/12 01:17:18;;;;;;;0.00;0.00;;;19.50;99.90;;;;;;5093785;28;20182;-60
2023/08/12 01:19:46;;;;;;;0.13;0.13;;;19.60;99.90;;;;;;5093804;28;20295;-60
2023/08/12 01:22:12;;;;;;;0.47;0.40;;;19.60;99.90;;;;;;5093687;28;20176;-60
2023/08/12 01:24:39;;;;;;;0.00;0.00;;;19.50;99.90;;;;;;5093685;28;20171;-60
2023/08/12 01:27:06;;;;;;;0.00;0.00;;;19.50;99.90;;;;;;5093712;28;20180;-60
2023/08/12 01:29:33;;;;;;;0.00;0.00;;;19.50;99.90;;;;;;5093495;28;20637;-60
2023/08/12 01:32:08;;;;;;;0.00;0.00;;;19.50;99.90;;;;;;5092977;28;20286;-60
2023/08/12 01:34:53;;;;;;;0.00;0.00;;;19.50;99.90;;;;;;5093511;28;20176;-60
2023/08/12 01:37:28;;;;;;;0.00;0.00;;;19.50;99.90;;;;;;5093342;28;20180;-60
2023/08/12 01:39:56;;;;;;;0.00;0.00;;;19.50;99.90;;;;;;5093159;28;20216;-61
2023/08/12 01:42:23;;;;;;;0.00;0.00;;;19.50;99.90;;;;;;5093159;28;20184;-60
2023/08/12 01:44:49;;;;;;;0.00;0.00;;;19.50;99.90;;;;;;5093221;28;20187;-60
2023/08/12 01:47:15;;;;;;;0.00;0.00;;;19.50;99.90;;;;;;5093058;28;20182;-60
2023/08/12 01:49:40;;;;;;;0.00;0.00;;;19.60;99.90;;;;;;5093392;28;20266;-60
2023/08/12 01:52:06;;;;;;;0.00;0.00;;;19.60;99.90;;;;;;5093183;28;20177;-60
2023/08/12 01:54:33;;;;;;;0.08;0.08;;;19.60;99.90;;;;;;5092954;28;20221;-60
2023/08/12 01:57:05;;;;;;;0.10;0.10;;;19.60;99.90;;;;;;5093041;28;20244;-60
2023/08/12 01:59:32;;;;;;;0.00;0.00;;;19.60;99.90;;;;;;5093098;28;20208;-61
2023/08/12 02:01:57;;;;;;;0.00;0.00;;;19.60;99.90;;;;;;5092931;28;20263;-60
2023/08/12 02:04:23;;;;;;;0.00;0.00;;;19.60;99.90;;;;;;5092980;28;20284;-60
2023/08/12 02:06:49;;;;;;;0.00;0.00;;;19.60;99.90;;;;;;5093068;28;20176;-60
2023/08/12 02:09:15;;;;;;;0.03;0.03;;;19.60;99.90;;;;;;5092836;28;20267;-60
2023/08/12 02:11:40;;;;;;;1.08;0.20;;;19.70;99.90;;;;;;5092890;28;20218;-60
2023/08/12 02:14:06;;;;;;;0.00;0.00;;;19.70;99.90;;;;;;5092598;28;20625;-60
2023/08/12 02:16:31;;;;;;;0.00;0.00;;;19.70;99.90;;;;;;5092488;28;20190;-60
2023/08/12 02:18:57;;;;;;;0.00;0.00;;;19.70;99.90;;;;;;5092322;28;20239;-60
2023/08/12 02:21:22;;;;;;;0.00;0.00;;;19.60;99.90;;;;;;5092662;28;20176;-60
2023/08/12 02:23:48;;;;;;;0.00;0.00;;;19.60;99.90;;;;;;5092619;28;20206;-60
2023/08/12 02:26:13;;;;;;;0.00;0.00;;;19.70;99.90;;;;;;5092539;28;20631;-60
2023/08/12 02:28:39;;;;;;;0.00;0.00;;;19.70;99.90;;;;;;5092294;28;20243;-60
2023/08/12 02:31:04;;;;;;;0.00;0.00;;;19.60;99.90;;;;;;5092471;28;20259;-60
2023/08/12 02:33:30;;;;;;;0.08;0.08;;;19.60;99.90;;;;;;5092432;28;20203;-60
2023/08/12 02:35:55;;;;;;;0.00;0.00;;;19.60;99.90;;;;;;5092263;28;20180;-60
2023/08/12 02:38:21;;;;;;;0.00;0.00;;;19.60;99.90;;;;;;5092212;28;20237;-60
2023/08/12 02:40:50;;;;;;;0.00;0.00;;;19.60;99.90;;;;;;5092339;28;20238;-61
2023/08/12 02:43:19;;;;;;;0.00;0.00;;;19.50;99.90;;;;;;5091502;28;20669;-60
2023/08/12 02:45:44;;;;;;;0.00;0.00;;;19.50;99.90;;;;;;5092414;28;20245;-60
2023/08/12 02:48:10;;;;;;;0.00;0.00;;;19.50;99.90;;;;;;5092165;28;20180;-60
2023/08/12 02:50:36;;;;;;;0.00;0.00;;;19.50;99.90;;;;;;5092032;28;20640;-60
2023/08/12 02:53:02;;;;;;;0.00;0.00;;;19.60;99.90;;;;;;5091824;28;20191;-60
2023/08/12 02:55:28;;;;;;;0.00;0.00;;;19.60;99.90;;;;;;5092019;28;20208;-60
2023/08/12 02:57:54;;;;;;;0.00;0.00;;;19.60;99.90;;;;;;5092016;28;20176;-60
2023/08/12 03:00:20;;;;;;;0.00;0.00;;;19.60;99.90;;;;;;5091926;28;20523;-60
2023/08/12 03:02:45;;;;;;;0.03;0.03;;;19.70;99.90;;;;;;5091947;28;20175;-60
2023/08/12 03:05:11;;;;;;;0.00;0.00;;;19.70;99.90;;;;;;5091868;28;20236;-60
2023/08/12 03:07:36;;;;;;;0.10;0.10;;;19.70;99.90;;;;;;5091843;28;20172;-60
2023/08/12 03:10:02;;;;;;;0.00;0.00;;;19.70;99.90;;;;;;5091926;28;20531;-61
2023/08/12 03:12:28;;;;;;;0.00;0.00;;;19.60;99.90;;;;;;5091936;28;20642;-60
2023/08/12 03:14:53;;;;;;;0.00;0.00;;;19.60;99.90;;;;;;5091935;28;20187;-60
2023/08/12 03:17:19;;;;;;;0.00;0.00;;;19.60;99.90;;;;;;5091736;28;20175;-60
2023/08/12 03:19:44;;;;;;;0.00;0.00;;;19.60;99.90;;;;;;5091919;28;20272;-61
2023/08/12 03:22:10;;;;;;;0.00;0.00;;;19.70;99.90;;;;;;5091872;28;20176;-60
2023/08/12 03:24:35;;;;;;;0.00;0.00;;;19.70;99.90;;;;;;5091830;28;20175;-60
2023/08/12 03:27:01;;;;;;;0.00;0.00;;;19.70;99.90;;;;;;5091862;28;20172;-61
2023/08/12 03:29:26;;;;;;;0.00;0.00;;;19.70;99.90;;;;;;5091713;28;20224;-61
2023/08/12 03:31:52;;;;;;;0.00;0.00;;;19.70;99.90;;;;;;5091874;28;20168;-61
2023/08/12 03:34:17;;;;;;;0.00;0.00;;;19.70;99.90;;;;;;5091608;28;20171;-61
2023/08/12 03:36:43;;;;;;;0.00;0.00;;;19.70;99.90;;;;;;5091749;28;20164;-61
2023/08/12 03:39:09;;;;;;;0.00;0.00;;;19.70;99.90;;;;;;5091629;28;20203;-61
2023/08/12 03:41:34;;;;;;;0.00;0.00;;;19.70;99.90;;;;;;5091762;28;20176;-61
2023/08/12 03:44:00;;;;;;;0.00;0.00;;;19.70;99.90;;;;;;5091541;28;20632;-61
2023/08/12 03:46:25;;;;;;;0.00;0.00;;;19.70;99.90;;;;;;5091511;28;20183;-61
2023/08/12 03:48:51;;;;;;;0.00;0.00;;;19.80;99.90;;;;;;5091395;28;20168;-61
2023/08/12 03:51:16;;;;;;;0.00;0.00;;;19.90;99.90;;;;;;5091327;28;20228;-61
2023/08/12 03:53:42;;;;;;;0.00;0.00;;;19.90;99.90;;;;;;5091499;28;20266;-61
2023/08/12 03:56:07;;;;;;;0.00;0.00;;;19.90;99.90;;;;;;5093434;28;20172;-61
2023/08/12 03:58:33;;;;;;;0.00;0.00;;;19.90;99.90;;;;;;5095499;28;20167;-61
2023/08/12 04:00:58;;;;;;;0.00;0.00;;;19.90;99.90;;;;;;5095474;28;20184;-61
2023/08/12 04:03:24;;;;;;;0.00;0.00;;;19.80;99.90;;;;;;5095487;28;20164;-60
2023/08/12 04:05:52;;;;;;;0.00;0.00;;;19.80;99.90;;;;;;5095434;28;20218;-61
2023/08/12 04:08:19;;;;;;;0.10;0.10;;;19.80;99.90;;;;;;5095166;28;20191;-61
2023/08/12 04:10:47;;;;;;;0.00;0.00;;;19.80;99.90;;;;;;5095371;28;20176;-61
2023/08/12 04:13:13;;;;;;;0.00;0.00;;;19.80;99.90;;;;;;5095201;28;20176;-61
2023/08/12 04:15:39;;;;;;;0.00;0.00;;;19.80;99.90;;;;;;5095069;28;20626;-61
2023/08/12 04:18:05;;;;;;;0.00;0.00;;;19.80;99.90;;;;;;5095154;28;20276;-61
2023/08/12 04:20:30;;;;;;;0.00;0.00;;;19.80;99.90;;;;;;5095125;28;20222;-61
2023/08/12 04:22:56;;;;;;;0.00;0.00;;;19.80;99.90;;;;;;5094948;28;20194;-61
2023/08/12 04:25:22;;;;;;;0.10;0.10;;;19.90;99.90;;;;;;5094978;28;20187;-61
2023/08/12 04:27:49;;;;;;;0.00;0.00;;;19.90;99.90;;;;;;5094776;28;20658;-61
2023/08/12 04:30:16;;;;;;;0.10;0.10;;;19.90;99.90;;;;;;5095065;28;20202;-61
2023/08/12 04:32:41;;;;;;;0.00;0.00;;;19.90;99.90;;;;;;5094936;28;20649;-61
2023/08/12 04:35:07;;;;;;;0.00;0.00;;;19.90;99.90;;;;;;5094894;28;20267;-61
2023/08/12 04:37:33;;;;;;;0.00;0.00;;;19.90;99.90;;;;;;5094916;28;20176;-61
2023/08/12 04:39:59;;;;;;;0.00;0.00;;;19.90;99.90;;;;;;5094497;28;20654;-61
2023/08/12 04:42:24;;;;;;;0.00;0.00;;;19.90;99.90;;;;;;5094771;28;20169;-61
2023/08/12 04:44:50;;;;;;;0.00;0.00;;;19.90;99.90;;;;;;5094565;28;20176;-61
2023/08/12 04:47:15;;;;;;;0.00;0.00;;;19.90;99.90;;;;;;5094532;28;20184;-61
2023/08/12 04:49:41;;;;;;;0.00;0.00;;;19.90;99.90;;;;;;5094711;28;20190;-61
2023/08/12 04:52:07;;;;;;;0.00;0.00;;;19.90;99.90;;;;;;5094340;28;20211;-61
2023/08/12 04:54:33;;;;;;;0.00;0.00;;;19.90;99.90;;;;;;5094188;28;20615;-61
2023/08/12 04:56:59;;;;;;;0.00;0.00;;;19.90;99.90;;;;;;5093997;28;20181;-61
2023/08/12 04:59:25;;;;;;;0.00;0.00;;;19.90;99.90;;;;;;5094079;28;20219;-61
2023/08/12 05:01:50;;;;;;;0.00;0.00;;;19.90;99.90;;;;;;5094018;28;20558;-61
2023/08/12 05:04:16;;;;;;;0.00;0.00;;;20.00;99.90;;;;;;5093679;28;20263;-61
2023/08/12 05:06:41;;;;;;;0.10;0.10;;;20.00;99.90;;;;;;5093267;28;20179;-61
2023/08/12 05:09:08;;;;;;;0.00;0.00;;;20.10;99.90;;;;;;5093469;28;20618;-61
2023/08/12 05:11:33;;;;;;;0.10;0.10;;;20.20;99.90;;;;;;5093766;28;20184;-61
2023/08/12 05:13:59;;;;;;;0.00;0.00;;;20.20;99.90;;;;;;5093416;28;20180;-61
2023/08/12 05:16:24;;;;;;;0.00;0.00;;;20.20;99.90;;;;;;5093537;28;20176;-61
2023/08/12 05:18:50;;;;;;;0.00;0.00;;;20.20;99.90;;;;;;5093468;28;20612;-61
2023/08/12 05:21:16;;;;;;;0.00;0.00;;;20.20;99.90;;;;;;5093305;28;20200;-61
2023/08/12 05:23:41;;;;;;;0.00;0.00;;;20.20;99.90;;;;;;5093520;28;20592;-61
2023/08/12 05:26:07;;;;;;;0.00;0.00;;;20.30;99.90;;;;;;5093330;28;20173;-61
2023/08/12 05:28:32;;;;;;;0.00;0.00;;;20.30;99.90;;;;;;5093120;28;20244;-61
2023/08/12 05:30:58;;;;;;;0.00;0.00;;;20.30;99.90;;;;;;5093072;28;20520;-61
2023/08/12 05:33:24;;;;;;;0.00;0.00;;;20.40;99.90;;;;;;5093292;28;20570;-61
2023/08/12 05:35:50;;;;;;;0.05;0.05;;;20.50;99.90;;;;;;5093257;28;20670;-61
2023/08/12 05:38:15;;;;;;;0.00;0.00;;;20.70;99.90;;;;;;5093039;28;20180;-61
2023/08/12 05:40:41;;;;;;;0.32;0.30;;;20.80;99.90;;;;;;5092989;28;20672;-61
2023/08/12 05:43:07;;;;;;;0.00;0.00;;;21.10;99.90;;;;;;5092885;28;20198;-61
2023/08/12 05:45:32;;;;;;;0.00;0.00;;;21.20;99.90;;;;;;5093124;28;20183;-61
2023/08/12 05:47:58;;;;;;;0.00;0.00;;;21.40;99.90;;;;;;5092682;28;20172;-61
2023/08/12 05:50:23;;;;;;;0.03;0.03;;;21.60;99.90;;;;;;5092888;28;20258;-61
2023/08/12 05:52:49;;;;;;;0.00;0.00;;;21.70;99.90;;;;;;5092817;28;20671;-61
2023/08/12 05:55:14;;;;;;;0.00;0.00;;;22.10;99.90;;;;;;5092800;28;20199;-61
2023/08/12 05:57:40;;;;;;;0.00;0.00;;;22.50;99.90;;;;;;5092805;28;20682;-61
2023/08/12 06:00:06;;;;;;;0.10;0.10;;;22.60;99.90;;;;;;5092482;28;20226;-61
2023/08/12 06:02:32;;;;;;;0.00;0.00;;;22.70;99.90;;;;;;5092715;28;20168;-61
2023/08/12 06:04:57;;;;;;;0.00;0.00;;;22.70;99.90;;;;;;5092485;28;20249;-61
2023/08/12 06:07:23;;;;;;;0.00;0.00;;;22.80;99.90;;;;;;5092486;28;20176;-61
2023/08/12 06:09:50;;;;;;;0.00;0.00;;;22.80;99.90;;;;;;5092670;28;20187;-61
2023/08/12 06:12:15;;;;;;;0.00;0.00;;;22.90;99.90;;;;;;5092517;28;20228;-61
2023/08/12 06:14:41;;;;;;;0.38;0.15;;;23.10;99.90;;;;;;5092647;28;20188;-61
2023/08/12 06:17:07;;;;;;;0.00;0.00;;;23.70;99.90;;;;;;5092554;28;20168;-61
2023/08/12 06:19:33;;;;;;;0.00;0.00;;;24.40;99.90;;;;;;5091624;28;20212;-61
2023/08/12 06:21:58;;;;;;;0.00;0.00;;;24.70;99.90;;;;;;5092356;28;20289;-61
2023/08/12 06:24:24;;;;;;;0.15;0.15;;;24.80;99.90;;;;;;5092328;28;20183;-61
2023/08/12 06:26:49;;;;;;;0.00;0.00;;;25.10;99.90;;;;;;5092479;28;20179;-61
2023/08/12 06:29:15;;;;;;;0.00;0.00;;;25.30;99.90;;;;;;5092109;28;20227;-61
2023/08/12 06:31:41;;;;;;;0.00;0.00;;;25.40;99.90;;;;;;5092420;28;20183;-61
2023/08/12 06:34:07;;;;;;;0.00;0.00;;;25.40;99.90;;;;;;5092345;28;20176;-61
2023/08/12 06:36:32;;;;;;;0.00;0.00;;;25.50;99.90;;;;;;5092295;28;20172;-61
2023/08/12 06:38:58;;;;;;;0.00;0.00;;;25.50;99.90;;;;;;5092011;28;20206;-61
2023/08/12 06:41:23;;;;;;;0.00;0.00;;;25.40;99.90;;;;;;5092097;28;20781;-61
2023/08/12 06:43:49;;;;;;;0.10;0.10;;;25.50;99.90;;;;;;5092122;28;20210;-61
2023/08/12 06:46:15;;;;;;;0.00;0.00;;;25.50;99.90;;;;;;5091915;28;20589;-61
2023/08/12 06:48:40;;;;;;;0.00;0.00;;;25.50;99.90;;;;;;5092105;28;20183;-61
2023/08/12 06:51:10;;;;;;;0.00;0.00;;;25.50;99.90;;;;;;5091986;28;20199;-61
2023/08/12 06:53:37;;;;;;;0.00;0.00;;;25.40;99.90;;;;;;5091853;28;20230;-61
2023/08/12 06:56:02;;;;;;;0.00;0.00;;;25.40;99.90;;;;;;5092097;28;20187;-61
2023/08/12 06:58:28;;;;;;;0.00;0.00;;;25.60;99.90;;;;;;5092235;28;20176;-61
2023/08/12 07:00:53;;;;;;;0.17;0.17;;;26.40;99.90;;;;;;5092049;28;20567;-61
2023/08/12 07:03:19;;;;;;;0.00;0.00;;;27.20;99.90;;;;;;5091923;28;20191;-61
2023/08/12 07:05:45;;;;;;;0.00;0.00;;;27.50;99.90;;;;;;5091992;28;20237;-61
2023/08/12 07:08:10;;;;;;;0.00;0.00;;;27.70;99.90;;;;;;5091927;28;20183;-61
2023/08/12 07:10:40;;;;;;;0.08;0.05;;;27.80;99.90;;;;;;5091793;28;20176;-61
2023/08/12 07:13:06;;;;;;;0.10;0.08;;;27.80;99.90;;;;;;5091806;28;20176;-61
2023/08/12 07:15:31;;;;;;;0.00;0.00;;;27.70;99.90;;;;;;5091963;28;20576;-61
2023/08/12 07:17:57;;;;;;;0.00;0.00;;;27.70;99.90;;;;;;5091711;28;20172;-61
2023/08/12 07:20:24;;;;;;;0.00;0.00;;;27.70;99.90;;;;;;5091790;28;20215;-61
2023/08/12 07:22:49;;;;;;;0.00;0.00;;;27.70;99.90;;;;;;5091905;28;20172;-61
2023/08/12 07:25:15;;;;;;;0.00;0.00;;;27.40;99.90;;;;;;5091668;28;20253;-61
2023/08/12 07:27:41;;;;;;;0.00;0.00;;;27.10;99.90;;;;;;5091905;28;20627;-61
2023/08/12 07:30:07;;;;;;;0.00;0.00;;;27.00;99.90;;;;;;5091326;28;20242;-62
2023/08/12 07:32:33;;;;;;;0.00;0.00;;;26.80;99.90;;;;;;5091872;28;20191;-61
2023/08/12 07:34:59;;;;;;;0.00;0.00;;;26.80;99.90;;;;;;5091639;28;20550;-61
2023/08/12 07:37:25;;;;;;;0.00;0.00;;;26.70;99.90;;;;;;5091848;28;20163;-61
2023/08/12 07:39:51;;;;;;;0.00;0.00;;;26.60;99.90;;;;;;5091655;28;20212;-61
2023/08/12 07:42:17;;;;;;;0.00;0.00;;;27.00;99.90;;;;;;5091522;28;20187;-61
2023/08/12 07:44:43;;;;;;;0.28;0.03;;;28.00;99.90;;;;;;5091624;28;20642;-61
2023/08/12 07:47:09;;;;;;;0.00;0.00;;;28.60;99.20;;;;;;5091587;28;20263;-61
2023/08/12 07:49:35;;;;;;;0.20;0.20;;;28.50;98.70;;;;;;5091520;28;20455;-61
2023/08/12 07:52:01;;;;;;;0.00;0.00;;;28.50;98.50;;;;;;5091617;28;20184;-61
2023/08/12 07:54:26;;;;;;;0.00;0.00;;;28.40;98.90;;;;;;5091590;28;20164;-61
2023/08/12 07:56:55;;;;;;;0.15;0.15;;;28.30;99.00;;;;;;5091561;28;20198;-61
2023/08/12 07:59:21;;;;;;;0.00;0.00;;;28.20;98.90;;;;;;5091379;28;20752;-61
2023/08/12 08:01:47;;;;;;;0.00;0.00;;;28.20;99.10;;;;;;5091505;28;20200;-61
2023/08/12 08:04:12;;;;;;;0.00;0.00;;;28.10;99.40;;;;;;5091752;28;20172;-61
2023/08/12 08:06:38;;;;;;;0.00;0.00;;;28.30;99.40;;;;;;5091418;28;20172;-61
2023/08/12 08:09:04;;;;;;;0.05;0.00;;;28.60;99.20;;;;;;5091433;28;20179;-61
2023/08/12 08:11:31;;;;;;;0.00;0.00;;;28.60;99.00;;;;;;5091556;28;20199;-61
2023/08/12 08:13:58;;;;;;;0.00;0.00;;;28.70;98.00;;;;;;5091268;28;20674;-61
2023/08/12 08:16:23;;;;;;;0.00;0.00;;;28.80;98.50;;;;;;5091275;28;20180;-61
2023/08/12 08:18:49;;;;;;;0.00;0.00;;;29.00;97.90;;;;;;5091306;28;20242;-61
2023/08/12 08:21:15;;;;;;;0.00;0.00;;;29.00;97.50;;;;;;5091144;28;20291;-62
2023/08/12 08:23:41;;;;;;;0.00;0.00;;;28.90;97.60;;;;;;5090042;28;20179;-61
2023/08/12 08:26:07;;;;;;;0.00;0.00;;;28.70;97.60;;;;;;5091311;28;20233;-61
2023/08/12 08:28:32;;;;;;;0.00;0.00;;;28.50;98.00;;;;;;5091257;28;20232;-61
2023/08/12 08:30:58;;;;;;;0.00;0.00;;;28.20;98.30;;;;;;5091124;28;20259;-61
2023/08/12 08:33:25;;;;;;;0.00;0.00;;;28.20;98.70;;;;;;5091314;28;20249;-61
2023/08/12 08:35:51;;;;;;;0.00;0.00;;;28.80;98.90;;;;;;5091045;28;20187;-61
2023/08/12 08:38:17;;;;;;;0.00;0.00;;;29.60;98.10;;;;;;5091026;28;20192;-61
2023/08/12 08:40:42;;;;;;;0.00;0.00;;;30.40;97.60;;;;;;5091223;28;20215;-61
2023/08/12 08:43:08;;;;;;;0.00;0.00;;;31.00;95.70;;;;;;5094372;28;20259;-61
2023/08/12 08:45:34;;;;;;;0.00;0.00;;;31.70;95.00;;;;;;5094793;28;20187;-61
2023/08/12 08:48:01;;;;;;;0.05;0.05;;;32.30;93.30;;;;;;5094671;28;20176;-61
2023/08/12 08:50:30;;;;;;;0.00;0.00;;;32.80;93.70;;;;;;5094615;28;20225;-61
2023/08/12 08:52:56;;;;;;;0.00;0.00;;;33.30;91.80;;;;;;5094490;28;20183;-61
2023/08/12 08:55:22;;;;;;;0.00;0.00;;;33.60;90.70;;;;;;5094508;28;20662;-61
2023/08/12 08:57:48;;;;;;;0.03;0.03;;;33.30;88.10;;;;;;5094489;28;20171;-61
2023/08/12 09:00:15;;;;;;;0.00;0.00;;;33.00;88.40;;;;;;5094324;28;20222;-61
2023/08/12 09:02:43;;;;;;;0.00;0.00;;;33.00;89.80;;;;;;5094479;28;20172;-61
2023/08/12 09:05:10;;;;;;;0.00;0.00;;;33.20;90.50;;;;;;5094368;28;20172;-61
2023/08/12 09:07:35;;;;;;;0.00;0.00;;;33.60;90.20;;;;;;5094176;28;20187;-61
2023/08/12 09:10:03;;;;;;;0.00;0.00;;;34.00;87.90;;;;;;5094287;28;20184;-61
2023/08/12 09:12:31;;;;;;;0.00;0.00;;;34.20;87.90;;;;;;5094358;28;20184;-61
2023/08/12 09:14:56;;;;;;;0.00;0.00;;;34.30;86.50;;;;;;5094069;28;20527;-61
2023/08/12 09:17:22;;;;;;;0.00;0.00;;;34.30;84.80;;;;;;5094254;28;20198;-61
2023/08/12 09:19:48;;;;;;;0.28;0.28;;;34.30;85.40;;;;;;5093959;28;20318;-61
2023/08/12 09:22:14;;;;;;;0.00;0.00;;;34.50;83.50;;;;;;5093990;28;20327;-62
2023/08/12 09:24:40;;;;;;;0.00;0.00;;;34.60;83.60;;;;;;5094131;28;20214;-61
2023/08/12 09:27:05;;;;;;;0.00;0.00;;;35.00;84.50;;;;;;5093855;28;20622;-61
2023/08/12 09:29:33;;;;;;;0.00;0.00;;;35.20;82.70;;;;;;5093775;28;20235;-61
2023/08/12 09:32:22;;;;;;;0.00;0.00;;;35.20;79.80;;;;;;5093714;28;20266;-61
2023/08/12 09:34:53;;;;;;;0.00;0.00;;;35.00;80.10;;;;;;5088587;28;20207;-61
2023/08/12 09:37:19;;;;;;;0.20;0.20;;;35.00;79.50;;;;;;5093616;28;20175;-61
2023/08/12 09:39:47;;;;;;;0.10;0.10;;;35.00;78.60;;;;;;5093689;28;20249;-61
2023/08/12 09:42:12;;;;;;;0.00;0.00;;;34.90;78.60;;;;;;5093567;28;20183;-61
2023/08/12 09:44:38;;;;;;;0.00;0.00;;;34.80;77.40;;;;;;5093591;28;20175;-61
2023/08/12 09:47:06;;;;;;;0.00;0.00;;;34.80;77.50;;;;;;5093457;28;20190;-61
2023/08/12 09:49:32;;;;;;;0.00;0.00;;;34.80;78.10;;;;;;5093442;28;20175;-61
2023/08/12 09:51:57;;;;;;;0.00;0.00;;;34.50;78.60;;;;;;5093216;28;20179;-61
2023/08/12 09:54:26;;;;;;;0.00;0.00;;;34.40;79.70;;;;;;5093201;28;20172;-61
2023/08/12 09:56:57;;;;;;;0.00;0.00;;;34.30;80.20;;;;;;5093466;28;20179;-62
2023/08/12 09:59:23;;;;;;;0.00;0.00;;;34.30;79.60;;;;;;5093263;28;20550;-61
2023/08/12 10:01:50;;;;;;;0.00;0.00;;;34.20;80.20;;;;;;5093396;28;20298;-61
2023/08/12 10:04:21;;;;;;;0.05;0.05;;;34.20;80.50;;;;;;5093040;28;20662;-61
2023/08/12 10:06:48;;;;;;;0.00;0.00;;;34.10;80.10;;;;;;5093162;28;20182;-61
2023/08/12 10:09:15;;;;;;;0.00;0.00;;;34.00;81.30;;;;;;5093037;28;20186;-61
2023/08/12 10:11:42;;;;;;;0.00;0.00;;;34.10;81.40;;;;;;5093176;28;20175;-61
2023/08/12 10:14:09;;;;;;;0.00;0.00;;;34.20;81.00;;;;;;5093033;28;20203;-61
2023/08/12 10:16:35;;;;;;;0.00;0.00;;;34.20;81.50;;;;;;5093074;28;20725;-62
2023/08/12 10:19:04;;;;;;;0.00;0.00;;;34.60;81.60;;;;;;5092846;28;20203;-59
2023/08/12 10:21:29;;;;;;;0.00;0.00;;;35.10;80.80;;;;;;5093006;28;20262;-59
2023/08/12 10:23:57;;;;;;;0.30;0.30;;;35.30;77.40;;;;;;5092684;28;20250;-59
2023/08/12 10:26:24;;;;;;;0.00;0.00;;;35.40;75.80;;;;;;5092758;28;20692;-59
2023/08/12 10:28:50;;;;;;;0.10;0.10;;;35.60;75.90;;;;;;5092562;28;20227;-59
2023/08/12 10:31:16;;;;;;;0.08;0.08;;;35.80;74.80;;;;;;5092441;28;20197;-61
2023/08/12 10:33:42;;;;;;;0.00;0.00;;;36.00;75.10;;;;;;5092736;28;20168;-61
2023/08/12 10:36:08;;;;;;;0.00;0.00;;;36.30;73.40;;;;;;5092566;28;20231;-61
2023/08/12 10:38:34;;;;;;;0.00;0.00;;;36.30;72.20;;;;;;5092543;28;20168;-61
2023/08/12 10:41:21;;;;;;;0.00;0.00;;;36.30;73.00;;;;;;5092478;28;20211;-61
2023/08/12 10:43:56;;;;;;;0.00;0.00;;;36.30;71.10;;;;;;5092585;28;20513;-61
2023/08/12 10:46:33;;;;;;;0.00;0.00;;;35.90;72.00;;;;;;5092393;28;20175;-61
2023/08/12 10:49:08;;;;;;;0.00;0.00;;;35.60;73.20;;;;;;5092250;28;20171;-60
2023/08/12 10:51:49;;;;;;;0.00;0.00;;;35.40;73.40;;;;;;5092338;28;20179;-59
2023/08/12 10:54:21;;;;;;;0.00;0.00;;;35.30;74.50;;;;;;5092290;28;21099;-59
2023/08/12 10:57:02;;;;;;;0.00;0.00;;;35.00;73.70;;;;;;5092318;28;20250;-59
2023/08/12 10:59:46;;;;;;;0.00;0.00;;;34.60;75.30;;;;;;5092074;28;20697;-59
2023/08/12 11:02:36;;;;;;;0.00;0.00;;;34.00;73.70;;;;;;5092143;28;20186;-59
2023/08/12 11:05:08;;;;;;;0.28;0.28;;;33.80;76.10;;;;;;5091584;28;20272;-59
2023/08/12 11:07:38;;;;;;;0.00;0.00;;;34.10;76.80;;;;;;5092047;28;20286;-59
2023/08/12 11:10:15;;;;;;;0.10;0.10;;;34.20;76.00;;;;;;5091925;28;20803;-59
2023/08/12 11:12:47;;;;;;;0.03;0.03;;;34.50;74.40;;;;;;5092118;28;20167;-60
2023/08/12 11:15:12;;;;;;;1.10;0.20;;;35.10;74.20;;;;;;5091963;28;20583;-59
2023/08/12 11:17:42;;;;;;;0.00;0.00;;;35.30;73.70;;;;;;5091870;28;20168;-61
2023/08/12 11:20:10;;;;;;;0.10;0.10;;;35.00;73.20;;;;;;5090699;28;20775;-59
2023/08/12 11:22:38;;;;;;;0.00;0.00;;;34.40;73.60;;;;;;5091901;28;20183;-59
2023/08/12 11:25:08;;;;;;;0.00;0.00;;;34.00;74.50;;;;;;5091764;28;20630;-59
2023/08/12 11:27:44;;;;;;;0.10;0.10;;;33.90;76.50;;;;;;5091889;28;20589;-59
2023/08/12 11:30:15;;;;;;;0.00;0.00;;;33.40;75.60;;;;;;5091759;28;20195;-59
2023/08/12 11:32:42;;;;;;;0.00;0.00;;;32.90;76.70;;;;;;5091806;28;20168;-59
2023/08/12 11:35:08;;;;;;;0.00;0.00;;;32.50;78.50;;;;;;5091620;28;20201;-59
2023/08/12 11:37:38;;;;;;;0.00;0.00;;;32.20;78.80;;;;;;5091898;28;20187;-59
2023/08/12 11:40:11;;;;;;;0.00;0.00;;;31.70;81.70;;;;;;5091598;28;20215;-59
2023/08/12 11:42:39;;;;;;;0.00;0.00;;;31.40;84.00;;;;;;5091719;28;20200;-59
2023/08/12 11:45:05;;;;;;;0.00;0.00;;;31.10;85.60;;;;;;5091616;28;20214;-59
2023/08/12 11:47:31;;;;;;;0.00;0.00;;;31.00;89.00;;;;;;5091634;28;20176;-59
2023/08/12 11:49:57;;;;;;;0.00;0.00;;;30.70;89.50;;;;;;5091704;28;20172;-59
2023/08/12 11:52:23;;;;;;;0.00;0.00;;;30.40;90.50;;;;;;5091810;28;20644;-59
2023/08/12 11:54:50;;;;;;;0.08;0.08;;;30.30;91.10;;;;;;5091755;28;20172;-58
2023/08/12 11:57:16;;;;;;;0.00;0.00;;;30.00;92.80;;;;;;5091424;28;20241;-59
2023/08/12 11:59:42;;;;;;;0.00;0.00;;;29.70;95.40;;;;;;5091421;28;20223;-59
2023/08/12 12:02:08;;;;;;;0.03;0.03;;;29.60;97.50;;;;;;5091136;28;20191;-59
2023/08/12 12:04:34;;;;;;;0.00;0.00;;;29.50;99.40;;;;;;5091587;28;20187;-59
2023/08/12 12:07:05;;;;;;;0.00;0.00;;;29.40;99.90;;;;;;5091588;28;20659;-59
2023/08/12 12:09:31;;;;;;;0.00;0.00;;;29.60;99.90;;;;;;5091695;28;20184;-59
2023/08/12 12:11:57;;;;;;;0.00;0.00;;;29.80;99.90;;;;;;5091375;28;20200;-59
2023/08/12 12:14:24;;;;;;;0.10;0.10;;;29.90;99.90;;;;;;5091408;28;20578;-61
2023/08/12 12:16:50;;;;;;;0.00;0.00;;;30.00;99.90;;;;;;5092856;28;20211;-60
2023/08/12 12:19:19;;;;;;;0.00;0.00;;;30.00;99.90;;;;;;5095205;28;20203;-60
2023/08/12 12:21:50;;;;;;;0.00;0.00;;;30.00;99.90;;;;;;5095307;28;20191;-60
2023/08/12 12:24:17;;;;;;;0.00;0.00;;;29.90;99.90;;;;;;5095182;28;20625;-59
2023/08/12 12:26:43;;;;;;;0.00;0.00;;;29.70;99.90;;;;;;5095257;28;20330;-60
2023/08/12 12:29:13;;;;;;;0.00;0.00;;;29.60;99.90;;;;;;5094823;28;20272;-59
2023/08/12 12:31:39;;;;;;;0.00;0.00;;;29.60;99.90;;;;;;5095036;28;20183;-60
2023/08/12 12:34:05;;;;;;;0.05;0.05;;;29.80;99.90;;;;;;5095074;28;20178;-59
2023/08/12 12:36:34;;;;;;;0.00;0.00;;;30.10;99.90;;;;;;5095047;28;20654;-60
2023/08/12 12:39:00;;;;;;;0.00;0.00;;;30.60;99.90;;;;;;5095008;28;20194;-60
2023/08/12 12:41:26;;;;;;;0.00;0.00;;;30.80;99.80;;;;;;5094925;28;20176;-60
2023/08/12 12:43:51;;;;;;;0.00;0.00;;;30.90;99.40;;;;;;5094764;28;20643;-60
2023/08/12 12:46:17;;;;;;;0.00;0.00;;;31.00;99.60;;;;;;5094538;28;20723;-60